sensor_id;sensor_type;location;lat;lon;timestamp;pressure;altitude;pressure_sealevel;temperature;humidity
8697;BME280;4385;48.848;8.924;2023-04-27T00:00:21;97468.69;;;17.61;100.00
8697;BME280;4385;48.848;8.924;2023-04-27T00:02:46;97472.09;;;17.60;100.00
8697;BME280;4385;48.848;8.924;2023-04-27T00:05:11;97464.50;;;17.58;100.00
8697;BME280;4385;48.848;8.924;2023-04-27T00:07:37;97464.50;;;17.58;100.00
8697;BME280;4385;48.848;8.924;2023-04-27T00:10:02;97458.56;;;17.57;100.00
8697;BME280;4385;48.848;8.924;2023-04-27T00:12:28;97457.69;;;17.57;100.00
8697;BME280;4385;48.848;8.924;2023-04-27T00:14:53;97450.09;;;17.55;100.00
8697;BME280;4385;48.848;8.924;2023-04-27T00:17:18;97455.19;;;17.55;100.00
8697;BME280;4385;48.848;8.924;2023-04-27T00:19:44;97448.41;;;17.54;100.00
8697;BME280;4385;48.848;8.924;2023-04-27T00:22:11;97454.38;;;17.55;100.00
8697;BME280;4385;48.848;8.924;2023-04-27T00:24:38;97451.84;;;17.53;100.00
8697;BME280;4385;48.848;8.924;2023-04-27T00:27:03;97451.00;;;17.53;100.00
8697;BME280;4385;48.848;8.924;2023-04-27T00:29:28;97451.88;;;17.52;100.00
8697;BME280;4385;48.848;8.924;2023-04-27T00:31:53;97454.44;;;17.50;100.00
8697;BME280;4385;48.848;8.924;2023-04-27T00:34:19;97445.97;;;17.50;100.00
8697;BME280;4385;48.848;8.924;2023-04-27T00:36:44;97445.09;;;17.49;100.00
8697;BME280;4385;48.848;8.924;2023-04-27T00:39:10;97445.13;;;17.48;100.00
8697;BME280;4385;48.848;8.924;2023-04-27T00:41:36;97442.63;;;17.46;100.00
8697;BME280;4385;48.848;8.924;2023-04-27T00:44:03;97438.34;;;17.48;100.00
8697;BME280;4385;48.848;8.924;2023-04-27T00:46:29;97434.97;;;17.46;100.00
8697;BME280;4385;48.848;8.924;2023-04-27T00:48:55;97433.31;;;17.45;100.00
8697;BME280;4385;48.848;8.924;2023-04-27T00:51:21;97430.78;;;17.43;100.00
8697;BME280;4385;48.848;8.924;2023-04-27T00:53:47;97427.41;;;17.43;100.00
8697;BME280;4385;48.848;8.924;2023-04-27T00:56:13;97424.03;;;17.42;100.00
8697;BME280;4385;48.848;8.924;2023-04-27T00:58:38;97428.28;;;17.42;100.00
8697;BME280;4385;48.848;8.924;2023-04-27T01:01:03;97432.50;;;17.41;100.00
8697;BME280;4385;48.848;8.924;2023-04-27T01:03:29;97436.78;;;17.41;100.00
8697;BME280;4385;48.848;8.924;2023-04-27T01:05:55;97441.88;;;17.41;100.00
8697;BME280;4385;48.848;8.924;2023-04-27T01:08:21;97439.38;;;17.39;100.00
8697;BME280;4385;48.848;8.924;2023-04-27T01:10:46;97441.03;;;17.40;100.00
8697;BME280;4385;48.848;8.924;2023-04-27T01:13:13;97446.97;;;17.41;100.00
8697;BME280;4385;48.848;8.924;2023-04-27T01:15:39;97448.69;;;17.40;100.00
8697;BME280;4385;48.848;8.924;2023-04-27T01:18:05;97443.59;;;17.40;100.00
8697;BME280;4385;48.848;8.924;2023-04-27T01:20:30;97440.19;;;17.40;100.00
8697;BME280;4385;48.848;8.924;2023-04-27T01:22:56;97447.03;;;17.38;100.00
8697;BME280;4385;48.848;8.924;2023-04-27T01:25:22;97450.44;;;17.37;100.00
8697;BME280;4385;48.848;8.924;2023-04-27T01:27:48;97446.19;;;17.37;100.00
8697;BME280;4385;48.848;8.924;2023-04-27T01:30:13;97445.34;;;17.37;100.00
8697;BME280;4385;48.848;8.924;2023-04-27T01:32:39;97447.88;;;17.37;100.00
8697;BME280;4385;48.848;8.924;2023-04-27T01:35:05;97443.66;;;17.36;100.00
8697;BME280;4385;48.848;8.924;2023-04-27T01:37:31;97439.44;;;17.35;100.00
8697;BME280;4385;48.848;8.924;2023-04-27T01:39:57;97439.44;;;17.35;100.00
8697;BME280;4385;48.848;8.924;2023-04-27T01:42:22;97435.22;;;17.33;100.00
8697;BME280;4385;48.848;8.924;2023-04-27T01:44:47;97438.63;;;17.32;100.00
8697;BME280;4385;48.848;8.924;2023-04-27T01:47:14;97436.97;;;17.31;100.00
8697;BME280;4385;48.848;8.924;2023-04-27T01:49:39;97444.63;;;17.30;100.00
8697;BME280;4385;48.848;8.924;2023-04-27T01:52:05;97442.94;;;17.29;100.00
8697;BME280;4385;48.848;8.924;2023-04-27T01:54:30;97440.41;;;17.27;100.00
8697;BME280;4385;48.848;8.924;2023-04-27T01:56:55;97445.50;;;17.27;100.00
8697;BME280;4385;48.848;8.924;2023-04-27T01:59:22;97448.94;;;17.26;100.00
8697;BME280;4385;48.848;8.924;2023-04-27T02:01:48;97446.38;;;17.26;100.00
8697;BME280;4385;48.848;8.924;2023-04-27T02:04:13;97444.72;;;17.25;100.00
8697;BME280;4385;48.848;8.924;2023-04-27T02:06:38;97452.34;;;17.25;100.00
8697;BME280;4385;48.848;8.924;2023-04-27T02:09:05;97452.34;;;17.25;100.00
8697;BME280;4385;48.848;8.924;2023-04-27T02:11:30;97451.50;;;17.25;100.00
8697;BME280;4385;48.848;8.924;2023-04-27T02:13:56;97455.75;;;17.24;100.00
8697;BME280;4385;48.848;8.924;2023-04-27T02:16:21;97450.69;;;17.23;100.00
8697;BME280;4385;48.848;8.924;2023-04-27T02:18:46;97452.41;;;17.22;100.00
8697;BME280;4385;48.848;8.924;2023-04-27T02:21:13;97449.88;;;17.20;100.00
8697;BME280;4385;48.848;8.924;2023-04-27T02:23:38;97454.97;;;17.20;100.00
8697;BME280;4385;48.848;8.924;2023-04-27T02:26:03;97454.97;;;17.20;100.00
8697;BME280;4385;48.848;8.924;2023-04-27T02:28:29;97461.78;;;17.18;100.00
8697;BME280;4385;48.848;8.924;2023-04-27T02:30:55;97450.75;;;17.18;100.00
8697;BME280;4385;48.848;8.924;2023-04-27T02:33:20;97461.78;;;17.18;100.00
8697;BME280;4385;48.848;8.924;2023-04-27T02:35:45;97466.91;;;17.17;100.00
8697;BME280;4385;48.848;8.924;2023-04-27T02:38:10;97461.81;;;17.17;100.00
8697;BME280;4385;48.848;8.924;2023-04-27T02:40:37;97469.47;;;17.17;100.00
8697;BME280;4385;48.848;8.924;2023-04-27T02:43:02;97463.50;;;17.18;100.00
8697;BME280;4385;48.848;8.924;2023-04-27T02:45:28;97466.91;;;17.17;100.00
8697;BME280;4385;48.848;8.924;2023-04-27T02:47:53;97468.59;;;17.16;100.00
8697;BME280;4385;48.848;8.924;2023-04-27T02:50:19;97473.69;;;17.16;100.00
8697;BME280;4385;48.848;8.924;2023-04-27T02:52:44;97471.16;;;17.16;100.00
8697;BME280;4385;48.848;8.924;2023-04-27T02:55:09;97472.88;;;17.16;100.00
8697;BME280;4385;48.848;8.924;2023-04-27T02:57:35;97469.47;;;17.17;100.00
8697;BME280;4385;48.848;8.924;2023-04-27T03:00:01;97465.28;;;17.14;100.00
8697;BME280;4385;48.848;8.924;2023-04-27T03:02:26;97467.81;;;17.14;100.00
8697;BME280;4385;48.848;8.924;2023-04-27T03:04:52;97461.88;;;17.14;100.00
8697;BME280;4385;48.848;8.924;2023-04-27T03:07:20;97467.84;;;17.13;100.00
8697;BME280;4385;48.848;8.924;2023-04-27T03:09:46;97455.13;;;17.11;100.00
8697;BME280;4385;48.848;8.924;2023-04-27T03:12:11;97462.81;;;17.10;100.00
8697;BME280;4385;48.848;8.924;2023-04-27T03:14:36;97467.03;;;17.11;100.00
8697;BME280;4385;48.848;8.924;2023-04-27T03:17:02;97456.00;;;17.08;100.00
8697;BME280;4385;48.848;8.924;2023-04-27T03:19:27;97466.19;;;17.08;100.00
8697;BME280;4385;48.848;8.924;2023-04-27T03:21:53;97463.66;;;17.08;100.00
8697;BME280;4385;48.848;8.924;2023-04-27T03:24:18;97465.38;;;17.08;100.00
8697;BME280;4385;48.848;8.924;2023-04-27T03:26:43;97461.94;;;17.09;100.00
8697;BME280;4385;48.848;8.924;2023-04-27T03:29:08;97468.75;;;17.08;100.00
8697;BME280;4385;48.848;8.924;2023-04-27T03:31:34;97460.28;;;17.08;100.00
8697;BME280;4385;48.848;8.924;2023-04-27T03:33:59;97464.53;;;17.07;100.00
8697;BME280;4385;48.848;8.924;2023-04-27T03:36:24;97470.47;;;17.08;100.00
8697;BME280;4385;48.848;8.924;2023-04-27T03:38:51;97469.63;;;17.07;100.00
8697;BME280;4385;48.848;8.924;2023-04-27T03:41:16;97468.72;;;17.07;100.00
8697;BME280;4385;48.848;8.924;2023-04-27T03:43:41;97474.69;;;17.06;100.00
8697;BME280;4385;48.848;8.924;2023-04-27T03:46:07;97473.81;;;17.07;100.00
8697;BME280;4385;48.848;8.924;2023-04-27T03:48:32;97471.31;;;17.05;100.00
8697;BME280;4385;48.848;8.924;2023-04-27T03:50:59;97471.31;;;17.05;100.00
8697;BME280;4385;48.848;8.924;2023-04-27T03:53:25;97477.28;;;17.04;100.00
8697;BME280;4385;48.848;8.924;2023-04-27T03:55:50;97474.72;;;17.04;100.00
8697;BME280;4385;48.848;8.924;2023-04-27T03:58:16;97473.06;;;17.03;100.00
8697;BME280;4385;48.848;8.924;2023-04-27T04:00:42;97473.06;;;17.03;100.00
8697;BME280;4385;48.848;8.924;2023-04-27T04:03:07;97468.81;;;17.02;100.00
8697;BME280;4385;48.848;8.924;2023-04-27T04:05:32;97473.06;;;17.03;100.00
8697;BME280;4385;48.848;8.924;2023-04-27T04:07:58;97463.72;;;17.02;100.00
8697;BME280;4385;48.848;8.924;2023-04-27T04:10:24;97471.34;;;17.02;100.00
8697;BME280;4385;48.848;8.924;2023-04-27T04:12:51;97468.84;;;17.01;100.00
8697;BME280;4385;48.848;8.924;2023-04-27T04:15:17;97473.09;;;17.00;100.00
8697;BME280;4385;48.848;8.924;2023-04-27T04:17:43;97482.41;;;17.01;100.00
8697;BME280;4385;48.848;8.924;2023-04-27T04:20:09;97474.81;;;17.00;100.00
8697;BME280;4385;48.848;8.924;2023-04-27T04:22:35;97481.56;;;17.01;100.00
8697;BME280;4385;48.848;8.924;2023-04-27T04:25:00;97483.28;;;17.00;100.00
8697;BME280;4385;48.848;8.924;2023-04-27T04:27:27;97484.13;;;16.99;100.00
8697;BME280;4385;48.848;8.924;2023-04-27T04:29:53;97488.38;;;17.00;100.00
8697;BME280;4385;48.848;8.924;2023-04-27T04:32:19;97485.88;;;16.99;100.00
8697;BME280;4385;48.848;8.924;2023-04-27T04:34:49;97484.13;;;17.01;100.00
8697;BME280;4385;48.848;8.924;2023-04-27T04:37:15;97483.25;;;17.03;100.00
8697;BME280;4385;48.848;8.924;2023-04-27T04:39:42;97481.50;;;17.05;100.00
8697;BME280;4385;48.848;8.924;2023-04-27T04:42:07;97484.91;;;17.07;100.00
8697;BME280;4385;48.848;8.924;2023-04-27T04:44:33;97489.94;;;17.11;100.00
8697;BME280;4385;48.848;8.924;2023-04-27T04:46:58;97484.81;;;17.12;100.00
8697;BME280;4385;48.848;8.924;2023-04-27T04:49:23;97483.91;;;17.15;100.00
8697;BME280;4385;48.848;8.924;2023-04-27T04:51:48;97484.78;;;17.14;100.00
8697;BME280;4385;48.848;8.924;2023-04-27T04:54:14;97489.88;;;17.14;100.00
8697;BME280;4385;48.848;8.924;2023-04-27T04:56:39;97483.97;;;17.12;100.00
8697;BME280;4385;48.848;8.924;2023-04-27T04:59:05;97494.16;;;17.12;100.00
8697;BME280;4385;48.848;8.924;2023-04-27T05:01:30;97492.47;;;17.12;100.00
8697;BME280;4385;48.848;8.924;2023-04-27T05:03:56;97489.88;;;17.14;100.00
8697;BME280;4385;48.848;8.924;2023-04-27T05:06:21;97488.22;;;17.13;100.00
8697;BME280;4385;48.848;8.924;2023-04-27T05:08:46;97483.94;;;17.13;100.00
8697;BME280;4385;48.848;8.924;2023-04-27T05:11:12;97482.25;;;17.14;100.00
8697;BME280;4385;48.848;8.924;2023-04-27T05:13:37;97484.78;;;17.14;100.00
8697;BME280;4385;48.848;8.924;2023-04-27T05:16:06;97483.88;;;17.16;100.00
8697;BME280;4385;48.848;8.924;2023-04-27T05:18:34;97483.03;;;17.19;100.00
8697;BME280;4385;48.848;8.924;2023-04-27T05:21:00;97484.69;;;17.20;100.00
8697;BME280;4385;48.848;8.924;2023-04-27T05:23:26;97485.50;;;17.22;100.00
8697;BME280;4385;48.848;8.924;2023-04-27T05:25:51;97488.84;;;17.24;100.00
8697;BME280;4385;48.848;8.924;2023-04-27T05:28:17;97499.03;;;17.24;100.00
8697;BME280;4385;48.848;8.924;2023-04-27T05:30:42;97501.59;;;17.24;100.00
8697;BME280;4385;48.848;8.924;2023-04-27T05:33:08;97498.19;;;17.25;100.00
8697;BME280;4385;48.848;8.924;2023-04-27T05:35:33;97501.59;;;17.24;100.00
8697;BME280;4385;48.848;8.924;2023-04-27T05:37:58;97502.44;;;17.25;100.00
8697;BME280;4385;48.848;8.924;2023-04-27T05:40:24;97504.09;;;17.26;100.00
8697;BME280;4385;48.848;8.924;2023-04-27T05:42:50;97503.28;;;17.25;100.00
8697;BME280;4385;48.848;8.924;2023-04-27T05:45:15;97508.38;;;17.25;100.00
8697;BME280;4385;48.848;8.924;2023-04-27T05:47:41;97508.34;;;17.27;100.00
8697;BME280;4385;48.848;8.924;2023-04-27T05:50:06;97505.81;;;17.27;100.00
8697;BME280;4385;48.848;8.924;2023-04-27T05:52:32;97506.63;;;17.27;100.00
8697;BME280;4385;48.848;8.924;2023-04-27T05:54:58;97517.66;;;17.28;100.00
8697;BME280;4385;48.848;8.924;2023-04-27T05:57:24;97511.72;;;17.27;100.00
8697;BME280;4385;48.848;8.924;2023-04-27T05:59:50;97520.19;;;17.29;100.00
8697;BME280;4385;48.848;8.924;2023-04-27T06:02:16;97510.88;;;17.28;100.00
8697;BME280;4385;48.848;8.924;2023-04-27T06:04:41;97517.63;;;17.29;100.00
8697;BME280;4385;48.848;8.924;2023-04-27T06:07:11;97526.94;;;17.30;100.00
8697;BME280;4385;48.848;8.924;2023-04-27T06:09:36;97525.22;;;17.32;100.00
8697;BME280;4385;48.848;8.924;2023-04-27T06:12:03;97524.38;;;17.32;100.00
8697;BME280;4385;48.848;8.924;2023-04-27T06:14:29;97524.34;;;17.33;100.00
8697;BME280;4385;48.848;8.924;2023-04-27T06:16:55;97531.16;;;17.33;100.00
8697;BME280;4385;48.848;8.924;2023-04-27T06:19:20;97530.31;;;17.32;100.00
8697;BME280;4385;48.848;8.924;2023-04-27T06:21:45;97529.50;;;17.30;100.00
8697;BME280;4385;48.848;8.924;2023-04-27T06:24:11;97532.91;;;17.29;100.00
8697;BME280;4385;48.848;8.924;2023-04-27T06:26:36;97531.22;;;17.30;100.00
8697;BME280;4385;48.848;8.924;2023-04-27T06:29:02;97538.78;;;17.35;100.00
8697;BME280;4385;48.848;8.924;2023-04-27T06:31:32;97538.78;;;17.35;100.00
8697;BME280;4385;48.848;8.924;2023-04-27T06:33:57;97532.84;;;17.34;100.00
8697;BME280;4385;48.848;8.924;2023-04-27T06:36:24;97531.94;;;17.37;100.00
8697;BME280;4385;48.848;8.924;2023-04-27T06:38:50;97548.91;;;17.38;100.00
8697;BME280;4385;48.848;8.924;2023-04-27T06:41:19;97540.41;;;17.39;100.00
8697;BME280;4385;48.848;8.924;2023-04-27T06:43:45;97540.34;;;17.42;100.00
8697;BME280;4385;48.848;8.924;2023-04-27T06:46:10;97536.09;;;17.42;100.00
8697;BME280;4385;48.848;8.924;2023-04-27T06:48:35;97543.72;;;17.44;100.00
8697;BME280;4385;48.848;8.924;2023-04-27T06:51:01;97541.16;;;17.45;100.00
8697;BME280;4385;48.848;8.924;2023-04-27T06:53:26;97542.81;;;17.47;100.00
8697;BME280;4385;48.848;8.924;2023-04-27T06:55:51;97547.03;;;17.48;100.00
8697;BME280;4385;48.848;8.924;2023-04-27T06:58:17;97549.56;;;17.49;100.00
8697;BME280;4385;48.848;8.924;2023-04-27T07:00:42;97550.41;;;17.50;100.00
8697;BME280;4385;48.848;8.924;2023-04-27T07:03:07;97545.31;;;17.50;100.00
8697;BME280;4385;48.848;8.924;2023-04-27T07:05:33;97538.53;;;17.50;100.00
8697;BME280;4385;48.848;8.924;2023-04-27T07:07:58;97550.41;;;17.50;100.00
8697;BME280;4385;48.848;8.924;2023-04-27T07:10:23;97544.50;;;17.48;100.00
8697;BME280;4385;48.848;8.924;2023-04-27T07:12:49;97551.31;;;17.47;100.00
8697;BME280;4385;48.848;8.924;2023-04-27T07:15:14;97547.06;;;17.46;100.00
8697;BME280;4385;48.848;8.924;2023-04-27T07:17:39;97553.00;;;17.47;100.00
8697;BME280;4385;48.848;8.924;2023-04-27T07:20:06;97547.91;;;17.47;100.00
8697;BME280;4385;48.848;8.924;2023-04-27T07:22:32;97541.97;;;17.46;100.00
8697;BME280;4385;48.848;8.924;2023-04-27T07:24:57;97543.66;;;17.47;100.00
8697;BME280;4385;48.848;8.924;2023-04-27T07:27:22;97551.31;;;17.47;100.00
8697;BME280;4385;48.848;8.924;2023-04-27T07:29:48;97543.66;;;17.47;100.00
8697;BME280;4385;48.848;8.924;2023-04-27T07:32:14;97541.13;;;17.47;100.00
8697;BME280;4385;48.848;8.924;2023-04-27T07:34:39;97535.16;;;17.48;100.00
8697;BME280;4385;48.848;8.924;2023-04-27T07:37:05;97531.72;;;17.49;100.00
8697;BME280;4385;48.848;8.924;2023-04-27T07:39:32;97538.53;;;17.50;100.00
8697;BME280;4385;48.848;8.924;2023-04-27T07:41:57;97537.66;;;17.51;100.00
8697;BME280;4385;48.848;8.924;2023-04-27T07:44:22;97536.78;;;17.52;100.00
8697;BME280;4385;48.848;8.924;2023-04-27T07:46:48;97535.03;;;17.54;100.00
8697;BME280;4385;48.848;8.924;2023-04-27T07:49:14;97538.41;;;17.56;100.00
8697;BME280;4385;48.848;8.924;2023-04-27T07:51:39;97533.28;;;17.58;100.00
8697;BME280;4385;48.848;8.924;2023-04-27T07:54:05;97526.47;;;17.58;100.00
8697;BME280;4385;48.848;8.924;2023-04-27T07:56:31;97533.25;;;17.60;100.00
8697;BME280;4385;48.848;8.924;2023-04-27T07:58:56;97538.34;;;17.60;100.00
8697;BME280;4385;48.848;8.924;2023-04-27T08:01:21;97535.81;;;17.60;100.00
8697;BME280;4385;48.848;8.924;2023-04-27T08:03:47;97536.59;;;17.62;100.00
8697;BME280;4385;48.848;8.924;2023-04-27T08:06:12;97533.25;;;17.61;100.00
8697;BME280;4385;48.848;8.924;2023-04-27T08:08:37;97535.78;;;17.61;100.00
8697;BME280;4385;48.848;8.924;2023-04-27T08:11:10;97525.59;;;17.61;100.00
8697;BME280;4385;48.848;8.924;2023-04-27T08:13:35;97535.78;;;17.61;100.00
8697;BME280;4385;48.848;8.924;2023-04-27T08:16:01;97527.25;;;17.62;100.00
8697;BME280;4385;48.848;8.924;2023-04-27T08:18:26;97528.94;;;17.63;100.00
8697;BME280;4385;48.848;8.924;2023-04-27T08:20:52;97528.06;;;17.66;100.00
8697;BME280;4385;48.848;8.924;2023-04-27T08:23:17;97525.47;;;17.67;100.00
8697;BME280;4385;48.848;8.924;2023-04-27T08:25:43;97522.91;;;17.69;100.00
8697;BME280;4385;48.848;8.924;2023-04-27T08:28:08;97515.22;;;17.70;100.00
8697;BME280;4385;48.848;8.924;2023-04-27T08:30:33;97524.56;;;17.70;100.00
8697;BME280;4385;48.848;8.924;2023-04-27T08:32:58;97516.06;;;17.71;100.00
8697;BME280;4385;48.848;8.924;2023-04-27T08:35:24;97515.22;;;17.70;100.00
8697;BME280;4385;48.848;8.924;2023-04-27T08:37:49;97516.91;;;17.72;100.00
8697;BME280;4385;48.848;8.924;2023-04-27T08:40:14;97515.22;;;17.70;100.00
8697;BME280;4385;48.848;8.924;2023-04-27T08:42:52;97510.13;;;17.70;100.00
8697;BME280;4385;48.848;8.924;2023-04-27T08:45:19;97510.09;;;17.72;100.00
8697;BME280;4385;48.848;8.924;2023-04-27T08:47:44;97507.56;;;17.72;100.00
8697;BME280;4385;48.848;8.924;2023-04-27T08:50:11;97516.06;;;17.71;100.00
8697;BME280;4385;48.848;8.924;2023-04-27T08:52:36;97507.56;;;17.72;100.00
8697;BME280;4385;48.848;8.924;2023-04-27T08:55:02;97502.47;;;17.72;100.00
8697;BME280;4385;48.848;8.924;2023-04-27T08:57:29;97509.22;;;17.73;100.00
8697;BME280;4385;48.848;8.924;2023-04-27T08:59:57;97505.78;;;17.74;100.00
8697;BME280;4385;48.848;8.924;2023-04-27T09:02:24;97513.41;;;17.76;100.00
8697;BME280;4385;48.848;8.924;2023-04-27T09:04:53;97514.25;;;17.76;100.00
8697;BME280;4385;48.848;8.924;2023-04-27T09:07:19;97516.84;;;17.75;100.00
8697;BME280;4385;48.848;8.924;2023-04-27T09:09:44;97510.00;;;17.77;100.00
8697;BME280;4385;48.848;8.924;2023-04-27T09:12:13;97515.94;;;17.77;100.00
8697;BME280;4385;48.848;8.924;2023-04-27T09:14:39;97524.44;;;17.78;100.00
8697;BME280;4385;48.848;8.924;2023-04-27T09:17:05;97526.97;;;17.78;100.00
8697;BME280;4385;48.848;8.924;2023-04-27T09:19:31;97528.69;;;17.77;100.00
8697;BME280;4385;48.848;8.924;2023-04-27T09:22:07;97526.97;;;17.78;100.00
8697;BME280;4385;48.848;8.924;2023-04-27T09:24:32;97521.94;;;17.75;100.00
8697;BME280;4385;48.848;8.924;2023-04-27T09:26:58;97520.25;;;17.75;100.00
8697;BME280;4385;48.848;8.924;2023-04-27T09:29:34;97524.47;;;17.76;100.00
8697;BME280;4385;48.848;8.924;2023-04-27T09:31:59;97518.50;;;17.76;100.00
8697;BME280;4385;48.848;8.924;2023-04-27T09:34:25;97527.00;;;17.76;100.00
8697;BME280;4385;48.848;8.924;2023-04-27T09:36:50;97531.22;;;17.77;100.00
8697;BME280;4385;48.848;8.924;2023-04-27T09:39:16;97530.38;;;17.78;100.00
8697;BME280;4385;48.848;8.924;2023-04-27T09:41:44;97532.03;;;17.79;100.00
8697;BME280;4385;48.848;8.924;2023-04-27T09:44:11;97519.31;;;17.79;100.00
8697;BME280;4385;48.848;8.924;2023-04-27T09:46:38;97519.31;;;17.79;100.00
8697;BME280;4385;48.848;8.924;2023-04-27T09:49:04;97515.88;;;17.80;100.00
8697;BME280;4385;48.848;8.924;2023-04-27T09:51:29;97515.81;;;17.83;100.00
8697;BME280;4385;48.848;8.924;2023-04-27T09:53:57;97513.25;;;17.85;100.00
8697;BME280;4385;48.848;8.924;2023-04-27T09:59:39;97512.34;;;17.88;100.00
8697;BME280;4385;48.848;8.924;2023-04-27T10:02:14;97514.91;;;17.88;100.00
8697;BME280;4385;48.848;8.924;2023-04-27T10:05:11;97519.13;;;17.89;100.00
8697;BME280;4385;48.848;8.924;2023-04-27T10:07:40;97512.34;;;17.88;100.00
8697;BME280;4385;48.848;8.924;2023-04-27T10:10:14;97514.09;;;17.86;100.00
8697;BME280;4385;48.848;8.924;2023-04-27T10:12:41;97513.25;;;17.85;100.00
8697;BME280;4385;48.848;8.924;2023-04-27T10:15:14;97517.53;;;17.85;100.00
8697;BME280;4385;48.848;8.924;2023-04-27T10:17:49;97517.53;;;17.85;100.00
8697;BME280;4385;48.848;8.924;2023-04-27T10:20:15;97513.25;;;17.85;100.00
8697;BME280;4385;48.848;8.924;2023-04-27T10:22:42;97507.31;;;17.85;100.00
8697;BME280;4385;48.848;8.924;2023-04-27T10:25:18;97518.38;;;17.83;100.00
8697;BME280;4385;48.848;8.924;2023-04-27T10:27:48;97512.41;;;17.85;100.00
8697;BME280;4385;48.848;8.924;2023-04-27T10:30:17;97510.66;;;17.87;100.00
8697;BME280;4385;48.848;8.924;2023-04-27T10:32:56;97516.59;;;17.87;100.00
8697;BME280;4385;48.848;8.924;2023-04-27T10:35:34;97511.50;;;17.87;100.00
8697;BME280;4385;48.848;8.924;2023-04-27T10:38:19;97507.19;;;17.91;100.00
8697;BME280;4385;48.848;8.924;2023-04-27T10:40:54;97497.81;;;17.91;100.00
8697;BME280;4385;48.848;8.924;2023-04-27T10:43:24;97495.25;;;17.93;100.00
8697;BME280;4385;48.848;8.924;2023-04-27T10:45:50;97503.72;;;17.95;100.00
8697;BME280;4385;48.848;8.924;2023-04-27T10:48:15;97500.28;;;17.96;100.00
8697;BME280;4385;48.848;8.924;2023-04-27T10:50:41;97504.53;;;17.97;100.00
8697;BME280;4385;48.848;8.924;2023-04-27T10:53:08;97500.22;;;17.99;100.00
8697;BME280;4385;48.848;8.924;2023-04-27T10:55:34;97505.31;;;17.99;100.00
8697;BME280;4385;48.848;8.924;2023-04-27T10:58:00;97505.31;;;17.99;100.00
8697;BME280;4385;48.848;8.924;2023-04-27T11:00:37;97501.03;;;18.01;100.00
8697;BME280;4385;48.848;8.924;2023-04-27T11:05:41;97500.19;;;18.01;100.00
8697;BME280;4385;48.848;8.924;2023-04-27T11:08:12;97490.84;;;18.01;100.00
8697;BME280;4385;48.848;8.924;2023-04-27T11:10:39;97489.97;;;18.02;100.00
8697;BME280;4385;48.848;8.924;2023-04-27T11:13:08;97489.94;;;18.04;100.00
8697;BME280;4385;48.848;8.924;2023-04-27T11:15:53;97485.66;;;18.06;100.00
8697;BME280;4385;48.848;8.924;2023-04-27T11:18:21;97484.72;;;18.08;100.00
8697;BME280;4385;48.848;8.924;2023-04-27T11:20:49;97483.88;;;18.10;100.00
8697;BME280;4385;48.848;8.924;2023-04-27T11:23:26;97477.09;;;18.08;100.00
8697;BME280;4385;48.848;8.924;2023-04-27T11:25:52;97477.91;;;18.11;100.00
8697;BME280;4385;48.848;8.924;2023-04-27T11:28:18;97480.44;;;18.11;100.00
8697;BME280;4385;48.848;8.924;2023-04-27T11:30:44;97484.69;;;18.10;100.00
8697;BME280;4385;48.848;8.924;2023-04-27T11:33:09;97489.81;;;18.10;100.00
8697;BME280;4385;48.848;8.924;2023-04-27T11:35:34;97486.44;;;18.10;100.00
8697;BME280;4385;48.848;8.924;2023-04-27T11:38:00;97482.16;;;18.10;100.00
8697;BME280;4385;48.848;8.924;2023-04-27T11:40:26;97493.19;;;18.11;100.00
8697;BME280;4385;48.848;8.924;2023-04-27T11:42:57;97483.00;;;18.11;100.00
8697;BME280;4385;48.848;8.924;2023-04-27T11:45:25;97487.25;;;18.12;100.00
8697;BME280;4385;48.848;8.924;2023-04-27T11:47:57;97486.44;;;18.11;100.00
8697;BME280;4385;48.848;8.924;2023-04-27T11:50:23;97483.00;;;18.11;100.00
8697;BME280;4385;48.848;8.924;2023-04-27T11:52:50;97475.34;;;18.12;100.00
8697;BME280;4385;48.848;8.924;2023-04-27T11:55:19;97478.75;;;18.13;100.00
8697;BME280;4385;48.848;8.924;2023-04-27T11:57:45;97477.88;;;18.14;100.00
8697;BME280;4385;48.848;8.924;2023-04-27T12:00:10;97472.81;;;18.12;100.00
8697;BME280;4385;48.848;8.924;2023-04-27T12:02:39;97466.78;;;18.15;100.00
8697;BME280;4385;48.848;8.924;2023-04-27T12:05:05;97471.03;;;18.16;100.00
8697;BME280;4385;48.848;8.924;2023-04-27T12:07:31;97466.75;;;18.16;100.00
8697;BME280;4385;48.848;8.924;2023-04-27T12:09:56;97462.50;;;18.17;100.00
8697;BME280;4385;48.848;8.924;2023-04-27T12:12:22;97462.50;;;18.17;100.00
8697;BME280;4385;48.848;8.924;2023-04-27T12:14:49;97468.41;;;18.19;100.00
8697;BME280;4385;48.848;8.924;2023-04-27T12:17:14;97470.97;;;18.19;100.00
8697;BME280;4385;48.848;8.924;2023-04-27T12:19:40;97466.72;;;18.18;100.00
8697;BME280;4385;48.848;8.924;2023-04-27T12:22:05;97463.34;;;18.17;100.00
8697;BME280;4385;48.848;8.924;2023-04-27T12:24:30;97460.81;;;18.17;100.00
8697;BME280;4385;48.848;8.924;2023-04-27T12:26:56;97465.06;;;18.17;100.00
8697;BME280;4385;48.848;8.924;2023-04-27T12:29:22;97466.72;;;18.18;100.00
8697;BME280;4385;48.848;8.924;2023-04-27T12:31:48;97465.88;;;18.19;100.00
8697;BME280;4385;48.848;8.924;2023-04-27T12:34:15;97456.50;;;18.18;100.00
8697;BME280;4385;48.848;8.924;2023-04-27T12:36:40;97451.38;;;18.19;100.00
8697;BME280;4385;48.848;8.924;2023-04-27T12:39:14;97459.00;;;18.21;100.00
8697;BME280;4385;48.848;8.924;2023-04-27T12:41:41;97462.38;;;18.23;100.00
8697;BME280;4385;48.848;8.924;2023-04-27T12:44:07;97453.84;;;18.24;100.00
8697;BME280;4385;48.848;8.924;2023-04-27T12:46:32;97461.44;;;18.26;100.00
8697;BME280;4385;48.848;8.924;2023-04-27T12:48:57;97449.50;;;18.28;100.00
8697;BME280;4385;48.848;8.924;2023-04-27T12:51:23;97452.91;;;18.28;100.00
8697;BME280;4385;48.848;8.924;2023-04-27T12:53:48;97447.81;;;18.28;100.00
8697;BME280;4385;48.848;8.924;2023-04-27T12:56:13;97449.47;;;18.29;100.00
8697;BME280;4385;48.848;8.924;2023-04-27T12:58:38;97457.97;;;18.30;100.00
8697;BME280;4385;48.848;8.924;2023-04-27T13:01:05;97446.94;;;18.29;100.00
8697;BME280;4385;48.848;8.924;2023-04-27T13:03:38;97440.16;;;18.28;100.00
8697;BME280;4385;48.848;8.924;2023-04-27T13:06:03;97443.56;;;18.27;100.00
8697;BME280;4385;48.848;8.924;2023-04-27T13:08:29;97447.78;;;18.30;100.00
8697;BME280;4385;48.848;8.924;2023-04-27T13:10:54;97441.88;;;18.28;100.00